createdAt,value
2022-12-20T00:28:40.775Z,37.97
2022-12-20T00:47:08.176Z,37.77
2022-12-20T00:50:18.016Z,38.20
2022-12-20T01:01:45.412Z,32.63
2022-12-20T01:04:13.899Z,33.13
2022-12-20T01:06:43.917Z,35.70
2022-12-20T01:09:12.773Z,34.93
2022-12-20T01:11:41.070Z,34.70
2022-12-20T01:14:12.560Z,37.77
2022-12-20T01:16:43.598Z,35.27
2022-12-20T01:19:14.676Z,31.73
2022-12-20T01:21:45.301Z,33.57
2022-12-20T01:24:13.985Z,32.97
2022-12-20T01:26:43.015Z,33.93
2022-12-20T01:29:11.460Z,31.53
2022-12-20T01:31:39.861Z,33.73
2022-12-20T01:34:08.552Z,32.67
2022-12-20T01:36:39.455Z,31.57
2022-12-20T01:39:10.368Z,31.30
2022-12-20T01:41:39.590Z,32.90
2022-12-20T01:44:23.603Z,31.63
2022-12-20T01:46:53.209Z,33.20
2022-12-20T01:49:23.774Z,31.57
2022-12-20T01:51:56.938Z,30.00
2022-12-20T01:54:30.853Z,32.17
2022-12-20T01:57:01.998Z,32.37
2022-12-20T01:59:32.471Z,32.27
2022-12-20T02:02:06.158Z,29.20
2022-12-20T02:04:34.536Z,29.43
2022-12-20T02:07:05.840Z,29.77
2022-12-20T02:09:36.992Z,30.43
2022-12-20T02:12:12.679Z,26.93
2022-12-20T02:15:00.979Z,27.37
2022-12-20T02:17:40.013Z,25.87
2022-12-20T02:20:33.723Z,29.57
2022-12-20T02:23:25.475Z,29.03
2022-12-20T02:26:07.436Z,30.50
2022-12-20T02:28:53.903Z,27.83
2022-12-20T02:31:28.874Z,26.50
2022-12-20T02:33:58.874Z,28.47
2022-12-20T02:36:27.285Z,27.13
2022-12-20T02:38:55.925Z,27.43
2022-12-20T02:41:30.389Z,30.57
2022-12-20T02:44:21.208Z,33.67
2022-12-20T02:46:51.913Z,31.50
2022-12-20T02:49:23.839Z,32.47
2022-12-20T02:51:55.604Z,30.57
2022-12-20T02:54:24.614Z,29.97
2022-12-20T02:56:59.038Z,30.67
2022-12-20T02:59:31.554Z,31.13
2022-12-20T03:02:01.773Z,29.77
2022-12-20T03:04:33.424Z,29.20
2022-12-20T03:07:03.603Z,32.23
2022-12-20T03:09:34.350Z,29.77
2022-12-20T03:12:02.644Z,32.83
2022-12-20T03:14:34.101Z,38.73
2022-12-20T03:17:07.004Z,35.37
2022-12-20T03:19:35.559Z,32.17
2022-12-20T03:22:03.928Z,32.53
2022-12-20T03:24:33.548Z,32.40
2022-12-20T03:27:03.342Z,33.67
2022-12-20T03:29:31.706Z,30.60
2022-12-20T03:32:00.105Z,35.10
2022-12-20T03:34:30.128Z,29.87
2022-12-20T03:36:58.510Z,34.23
2022-12-20T03:39:26.747Z,30.33
2022-12-20T03:41:56.892Z,28.13
2022-12-20T03:44:26.516Z,28.47
2022-12-20T03:46:55.655Z,28.60
2022-12-20T03:49:23.931Z,29.87
2022-12-20T03:51:54.779Z,31.43
2022-12-20T03:54:24.273Z,25.83
2022-12-20T03:57:27.789Z,26.97
2022-12-20T03:59:58.105Z,25.67
2022-12-20T04:02:26.589Z,25.53
2022-12-20T04:04:56.115Z,25.47
2022-12-20T04:07:26.112Z,27.50
2022-12-20T04:09:54.404Z,27.37
2022-12-20T04:12:22.718Z,25.50
2022-12-20T04:14:50.955Z,27.37
2022-12-20T04:17:19.278Z,26.27
2022-12-20T04:19:49.423Z,28.90
2022-12-20T04:22:19.308Z,27.80
2022-12-20T04:24:55.869Z,28.33
2022-12-20T04:27:26.484Z,28.33
2022-12-20T04:29:56.868Z,27.33
2022-12-20T04:32:25.487Z,28.33
2022-12-20T04:34:53.882Z,29.37
2022-12-20T04:37:22.551Z,30.80
2022-12-20T04:39:56.454Z,29.37
2022-12-20T04:42:28.026Z,27.63
2022-12-20T04:44:57.484Z,27.80
2022-12-20T04:47:29.260Z,26.87
2022-12-20T04:49:58.684Z,27.63
2022-12-20T04:52:47.847Z,25.83
2022-12-20T04:55:18.727Z,25.83
2022-12-20T04:57:47.154Z,27.13
2022-12-20T05:00:17.284Z,22.40
2022-12-20T05:02:51.544Z,27.97
2022-12-20T05:05:22.288Z,27.43
2022-12-20T05:07:54.716Z,28.70
2022-12-20T05:10:25.047Z,26.47
2022-12-20T05:12:55.255Z,25.33
2022-12-20T05:15:33.873Z,24.87
2022-12-20T05:18:02.506Z,26.60
2022-12-20T05:20:40.535Z,26.30
2022-12-20T05:23:27.999Z,24.67
2022-12-20T05:26:18.635Z,24.47
2022-12-20T05:28:47.793Z,25.07
2022-12-20T05:31:16.270Z,24.63
2022-12-20T05:33:45.679Z,28.73
2022-12-20T05:36:14.533Z,23.03
2022-12-20T05:38:42.965Z,23.40
2022-12-20T05:41:18.091Z,23.77
2022-12-20T05:43:50.108Z,23.93
2022-12-20T05:46:19.061Z,22.30
2022-12-20T05:49:02.422Z,23.00
2022-12-20T05:51:31.219Z,25.67
2022-12-20T05:54:03.741Z,25.27
2022-12-20T05:56:44.601Z,23.13
2022-12-20T05:59:13.590Z,24.63
2022-12-20T06:01:42.771Z,24.60
2022-12-20T06:04:11.174Z,23.77
2022-12-20T06:06:39.446Z,24.10
2022-12-20T06:09:10.997Z,26.40
2022-12-20T06:11:44.555Z,23.20
2022-12-20T06:14:16.299Z,22.83
2022-12-20T06:16:48.266Z,25.03
2022-12-20T06:19:21.721Z,24.17
2022-12-20T06:21:53.293Z,23.63
2022-12-20T06:24:28.871Z,24.40
2022-12-20T06:26:58.579Z,24.83
2022-12-20T06:29:28.120Z,24.77
2022-12-20T06:32:05.360Z,28.43
2022-12-20T06:34:34.070Z,23.43
2022-12-20T06:37:03.899Z,27.37
2022-12-20T06:39:35.220Z,25.00
2022-12-20T06:42:06.922Z,25.37
2022-12-20T06:44:36.856Z,25.43
2022-12-20T06:47:05.212Z,25.53
2022-12-20T06:49:33.652Z,30.00
2022-12-20T06:52:04.212Z,24.03
2022-12-20T06:54:44.706Z,27.43
2022-12-20T06:57:16.131Z,24.03
2022-12-20T06:59:47.871Z,24.80
2022-12-20T07:02:16.708Z,26.37
2022-12-20T07:04:45.186Z,25.43
2022-12-20T07:07:13.840Z,22.97
2022-12-20T07:09:42.803Z,24.83
2022-12-20T07:12:12.030Z,24.63
2022-12-20T07:14:41.619Z,23.13
2022-12-20T07:17:10.485Z,24.33
2022-12-20T07:19:39.093Z,23.10
2022-12-20T07:22:07.804Z,25.67
2022-12-20T07:24:36.916Z,24.67
2022-12-20T07:27:05.396Z,26.17
2022-12-20T07:29:33.572Z,22.23
2022-12-20T07:32:03.571Z,31.47
2022-12-20T07:34:32.027Z,26.83
2022-12-20T07:37:00.792Z,30.03
2022-12-20T07:39:29.178Z,27.33
2022-12-20T07:41:58.004Z,27.97
2022-12-20T07:44:26.452Z,36.43
2022-12-20T07:46:54.944Z,26.53
2022-12-20T07:49:24.624Z,32.80
2022-12-20T07:51:56.582Z,29.27
2022-12-20T07:54:29.132Z,30.17
2022-12-20T07:57:00.579Z,27.40
2022-12-20T07:59:35.010Z,22.73
2022-12-20T08:02:05.098Z,24.00
2022-12-20T08:04:35.642Z,23.97
2022-12-20T08:07:04.373Z,20.47
2022-12-20T08:09:38.203Z,22.43
2022-12-20T08:12:08.519Z,21.13
2022-12-20T08:14:37.366Z,20.00
2022-12-20T08:17:05.778Z,21.97
2022-12-20T08:19:35.597Z,23.00
2022-12-20T08:22:03.932Z,26.37
2022-12-20T08:24:32.212Z,23.97
2022-12-20T08:27:00.532Z,24.10
2022-12-20T08:29:29.090Z,24.20
2022-12-20T08:31:57.407Z,22.83
2022-12-20T08:34:25.612Z,23.00
2022-12-20T08:36:55.188Z,26.13
2022-12-20T08:39:23.564Z,29.97
2022-12-20T08:41:51.739Z,26.33
2022-12-20T08:44:20.263Z,28.53
2022-12-20T08:46:48.494Z,26.67
2022-12-20T08:49:16.801Z,28.20
2022-12-20T08:51:45.311Z,26.57
2022-12-20T08:54:14.971Z,24.97
2022-12-20T08:56:43.113Z,28.13
2022-12-20T08:59:14.267Z,24.63
2022-12-20T09:01:42.564Z,24.93
2022-12-20T09:04:12.119Z,26.43
2022-12-20T09:06:40.600Z,26.17
2022-12-20T09:09:08.892Z,27.00
2022-12-20T09:11:38.594Z,22.27
2022-12-20T09:14:08.124Z,25.30
2022-12-20T09:16:36.441Z,26.37
2022-12-20T09:19:06.470Z,24.67
2022-12-20T09:21:35.528Z,23.03
2022-12-20T09:24:03.926Z,27.57
2022-12-20T09:26:32.426Z,33.83
2022-12-20T09:29:02.352Z,27.27
2022-12-20T09:31:30.729Z,24.90
2022-12-20T09:34:01.106Z,22.77
2022-12-20T09:36:30.886Z,22.43
2022-12-20T09:38:59.450Z,21.87
2022-12-20T09:41:38.557Z,22.30
2022-12-20T09:44:15.255Z,19.67
2022-12-20T09:46:45.153Z,19.20
2022-12-20T09:49:18.327Z,23.23
2022-12-20T09:52:08.734Z,20.43
2022-12-20T09:54:43.615Z,18.73
2022-12-20T09:57:22.136Z,19.97
2022-12-20T09:59:51.749Z,20.30
2022-12-20T10:02:55.631Z,19.60
2022-12-20T10:05:16.602Z,20.33
2022-12-20T10:07:54.465Z,22.23
2022-12-20T10:10:45.779Z,24.60
2022-12-20T10:13:27.205Z,23.03
2022-12-20T10:16:01.845Z,21.90
2022-12-20T10:18:43.256Z,21.27
2022-12-20T10:21:20.750Z,19.57
2022-12-20T10:23:59.840Z,19.60
2022-12-20T10:26:28.496Z,20.27
2022-12-20T10:28:56.838Z,17.87
2022-12-20T10:31:26.533Z,18.90
2022-12-20T10:33:55.711Z,19.90
2022-12-20T10:36:26.915Z,21.10
2022-12-20T10:38:56.986Z,18.07
2022-12-20T10:41:27.716Z,20.90
2022-12-20T10:44:00.967Z,18.40
2022-12-20T10:46:42.354Z,16.97
2022-12-20T10:49:34.184Z,17.67
2022-12-20T10:52:05.446Z,18.43
2022-12-20T10:54:37.159Z,15.53
2022-12-20T10:57:18.175Z,14.60
2022-12-20T10:59:50.895Z,16.67
2022-12-20T11:02:31.934Z,15.27
2022-12-20T11:05:22.023Z,15.33
2022-12-20T11:10:46.632Z,15.93
2022-12-20T11:13:23.482Z,28.77
2022-12-20T11:15:55.433Z,18.20
2022-12-20T11:18:38.617Z,17.80
2022-12-20T11:21:27.629Z,17.00
2022-12-20T11:24:03.677Z,18.33
2022-12-20T11:26:43.074Z,17.13
2022-12-20T11:29:26.988Z,15.77
2022-12-20T11:32:04.575Z,16.23
2022-12-20T11:34:42.211Z,17.30
2022-12-20T11:37:19.358Z,14.20
2022-12-20T11:40:11.985Z,16.97
2022-12-20T11:42:53.639Z,14.07
2022-12-20T11:45:29.332Z,15.47
2022-12-20T11:48:27.708Z,14.90
2022-12-20T11:51:06.140Z,18.07
2022-12-20T11:53:41.948Z,21.53
2022-12-20T11:56:15.480Z,20.53
2022-12-20T11:58:52.884Z,17.03
2022-12-20T12:01:25.726Z,16.40
2022-12-20T12:04:06.144Z,15.20
2022-12-20T12:06:39.969Z,15.57
2022-12-20T12:09:16.697Z,17.23
2022-12-20T12:12:08.475Z,17.17
2022-12-20T12:14:50.014Z,18.40
2022-12-20T12:17:25.966Z,16.27
2022-12-20T12:19:58.106Z,15.87
2022-12-20T12:22:33.250Z,14.97
2022-12-20T12:25:05.642Z,14.97
2022-12-20T12:27:43.554Z,14.87
2022-12-20T12:30:15.029Z,14.03
2022-12-20T12:32:46.555Z,16.33
2022-12-20T12:35:47.021Z,12.87
2022-12-20T12:38:37.715Z,13.87
2022-12-20T12:41:41.873Z,15.80
2022-12-20T12:44:35.040Z,14.17
2022-12-20T13:30:33.555Z,16.17
2022-12-20T13:34:33.799Z,17.03
2022-12-20T13:37:55.121Z,17.27
2022-12-20T13:40:34.099Z,24.73
2022-12-20T13:43:09.744Z,26.33
2022-12-20T13:45:47.469Z,21.67
2022-12-20T15:19:23.992Z,23.10
2022-12-20T15:22:05.101Z,25.07
2022-12-20T15:25:25.216Z,25.27
2022-12-20T15:43:06.273Z,14.40
2022-12-20T19:15:04.423Z,17.33
2022-12-20T19:18:29.180Z,17.33
2022-12-20T19:21:57.149Z,16.97
2022-12-20T19:24:48.001Z,17.70
2022-12-20T19:27:33.170Z,22.37
2022-12-20T19:30:19.063Z,29.47
2022-12-20T19:33:39.748Z,51.57
2022-12-20T19:37:14.856Z,51.67
2022-12-20T19:40:48.532Z,40.77
2022-12-20T19:44:00.567Z,27.10
2022-12-20T19:47:27.881Z,22.07
2022-12-20T19:50:14.217Z,21.07
2022-12-20T19:53:55.138Z,20.30
2022-12-20T19:56:53.815Z,24.47
2022-12-20T19:59:37.603Z,19.33
2022-12-20T20:02:15.353Z,20.20
2022-12-20T20:05:18.253Z,21.53
2022-12-20T20:08:16.445Z,24.07
2022-12-20T20:11:18.075Z,23.67
2022-12-20T20:14:03.468Z,24.80
2022-12-20T20:17:03.195Z,27.50
2022-12-20T20:26:08.373Z,25.43
2022-12-20T20:28:54.416Z,22.17
2022-12-20T20:38:39.868Z,16.60
2022-12-20T20:42:23.197Z,15.20
2022-12-20T20:45:52.586Z,16.57
2022-12-20T20:48:58.240Z,14.47
2022-12-20T20:54:48.689Z,16.50
2022-12-20T21:00:57.084Z,16.27
2022-12-20T21:04:08.244Z,16.77
2022-12-20T21:07:08.139Z,17.03
2022-12-20T21:09:56.390Z,16.03
2022-12-20T21:12:39.486Z,20.30
2022-12-20T21:18:15.950Z,18.83
2022-12-20T21:21:00.662Z,19.47
2022-12-20T21:23:58.698Z,20.80
2022-12-20T21:27:08.540Z,18.77
2022-12-20T21:29:54.441Z,15.70
2022-12-20T21:32:42.794Z,19.53
2022-12-20T21:35:29.093Z,18.23
2022-12-20T21:38:27.085Z,17.63
2022-12-20T21:41:23.407Z,15.87
2022-12-20T21:44:34.532Z,16.97
2022-12-20T21:47:21.601Z,20.80
2022-12-20T21:49:55.643Z,20.67
2022-12-20T21:52:51.179Z,20.83
2022-12-20T21:55:35.678Z,18.80
2022-12-20T21:58:40.276Z,21.83
2022-12-20T22:04:06.288Z,19.13
2022-12-20T22:06:59.622Z,19.03
2022-12-20T22:10:00.164Z,20.47
2022-12-20T22:12:31.359Z,21.60
2022-12-20T22:15:32.434Z,22.33
2022-12-20T22:18:34.308Z,24.80
2022-12-20T22:21:37.815Z,21.80
2022-12-20T22:24:29.979Z,24.43
2022-12-20T22:27:21.085Z,17.57
2022-12-20T22:30:25.370Z,20.57
2022-12-20T22:33:30.211Z,17.37
2022-12-20T22:36:31.725Z,16.97
2022-12-20T22:39:22.421Z,17.87
2022-12-20T22:45:12.892Z,17.73
2022-12-20T22:48:31.944Z,21.83
2022-12-20T22:51:38.716Z,19.93
2022-12-20T22:54:35.430Z,21.93
2022-12-20T22:57:45.849Z,24.30
2022-12-20T23:00:47.369Z,18.63
2022-12-20T23:04:02.905Z,23.67
2022-12-20T23:07:24.382Z,18.87
2022-12-20T23:10:58.452Z,20.17
2022-12-20T23:17:23.781Z,17.03
2022-12-20T23:20:34.895Z,22.10
2022-12-20T23:23:37.114Z,21.07
2022-12-20T23:27:02.721Z,18.30
2022-12-20T23:36:41.386Z,20.30
2022-12-20T23:39:35.657Z,20.43
2022-12-20T23:45:51.669Z,19.43
2022-12-20T23:48:30.318Z,21.70
2022-12-20T23:51:42.609Z,20.80
2022-12-20T23:54:40.108Z,19.17
2022-12-20T23:57:54.367Z,21.63
